createdAt,value
2023-03-02T00:02:22.273Z,11.18
2023-03-02T00:04:48.587Z,11.05
2023-03-02T00:07:14.771Z,11.88
2023-03-02T00:09:40.954Z,12.73
2023-03-02T00:12:07.147Z,11.25
2023-03-02T00:14:33.322Z,12.30
2023-03-02T00:16:59.476Z,11.93
2023-03-02T00:19:25.648Z,11.30
2023-03-02T00:21:53.792Z,11.25
2023-03-02T00:24:19.962Z,10.13
2023-03-02T00:26:46.176Z,12.25
2023-03-02T00:29:12.382Z,13.55
2023-03-02T00:31:38.600Z,12.00
2023-03-02T00:34:04.812Z,12.60
2023-03-02T00:36:30.991Z,11.70
2023-03-02T00:38:57.152Z,13.30
2023-03-02T00:41:23.269Z,12.35
2023-03-02T00:43:49.448Z,12.43
2023-03-02T00:46:15.684Z,13.40
2023-03-02T00:48:41.924Z,12.07
2023-03-02T00:51:08.098Z,12.77
2023-03-02T00:53:34.259Z,12.40
2023-03-02T00:56:00.450Z,13.10
2023-03-02T00:58:26.663Z,13.43
2023-03-02T01:00:52.802Z,12.43
2023-03-02T01:03:19.011Z,12.73
2023-03-02T01:05:45.252Z,12.68
2023-03-02T01:08:11.426Z,13.20
2023-03-02T01:10:37.600Z,13.20
2023-03-02T01:13:03.784Z,13.63
2023-03-02T01:15:29.955Z,12.35
2023-03-02T01:17:56.135Z,12.02
2023-03-02T01:20:22.285Z,12.73
2023-03-02T01:22:48.480Z,12.40
2023-03-02T01:25:14.649Z,13.10
2023-03-02T01:27:40.784Z,11.23
2023-03-02T01:30:06.952Z,11.68
2023-03-02T01:32:33.200Z,12.38
2023-03-02T01:35:01.252Z,12.43
2023-03-02T01:37:27.396Z,12.75
2023-03-02T01:39:53.517Z,12.82
2023-03-02T01:42:19.673Z,12.02
2023-03-02T01:44:45.856Z,11.98
2023-03-02T01:47:12.058Z,12.05
2023-03-02T01:49:38.181Z,13.02
2023-03-02T01:52:04.392Z,12.25
2023-03-02T01:54:30.579Z,12.27
2023-03-02T01:56:56.743Z,13.10
2023-03-02T01:59:22.886Z,11.38
2023-03-02T02:01:48.999Z,13.52
2023-03-02T02:04:15.170Z,11.93
2023-03-02T02:06:41.386Z,11.35
2023-03-02T02:09:07.500Z,13.45
2023-03-02T02:11:33.647Z,12.27
2023-03-02T02:13:59.836Z,12.75
2023-03-02T02:16:26.072Z,12.23
2023-03-02T02:18:52.259Z,12.63
2023-03-02T02:21:18.499Z,12.43
2023-03-02T02:23:44.713Z,12.05
2023-03-02T02:26:10.867Z,13.25
2023-03-02T02:28:36.982Z,12.75
2023-03-02T02:31:03.093Z,13.50
2023-03-02T02:33:29.267Z,12.77
2023-03-02T02:35:55.443Z,12.55
2023-03-02T02:38:21.627Z,12.80
2023-03-02T02:40:47.843Z,12.15
2023-03-02T02:43:14.018Z,13.32
2023-03-02T02:45:40.208Z,11.95
2023-03-02T02:48:06.428Z,13.13
2023-03-02T02:50:32.619Z,12.35
2023-03-02T02:52:58.813Z,12.95
2023-03-02T02:55:24.956Z,12.68
2023-03-02T02:57:51.052Z,12.50
2023-03-02T03:00:17.259Z,12.88
2023-03-02T03:02:43.694Z,12.85
2023-03-02T03:05:09.903Z,12.38
2023-03-02T03:07:36.047Z,13.80
2023-03-02T03:10:02.300Z,13.13
2023-03-02T03:12:28.574Z,13.57
2023-03-02T03:14:54.760Z,12.68
2023-03-02T03:17:20.947Z,13.85
2023-03-02T03:19:47.113Z,12.65
2023-03-02T03:22:13.320Z,12.50
2023-03-02T03:24:39.452Z,13.15
2023-03-02T03:27:05.695Z,13.38
2023-03-02T03:29:31.842Z,12.88
2023-03-02T03:31:58.056Z,13.18
2023-03-02T03:34:24.249Z,13.40
2023-03-02T03:36:50.450Z,13.23
2023-03-02T03:39:16.573Z,12.25
2023-03-02T03:41:42.774Z,12.52
2023-03-02T03:44:08.945Z,12.55
2023-03-02T03:46:35.540Z,13.77
2023-03-02T03:49:01.907Z,14.40
2023-03-02T03:51:28.055Z,12.02
2023-03-02T03:53:54.220Z,12.75
2023-03-02T03:56:20.374Z,13.18
2023-03-02T03:58:46.562Z,12.20
2023-03-02T04:01:12.714Z,12.13
2023-03-02T04:03:38.927Z,12.20
2023-03-02T04:06:05.166Z,12.70
2023-03-02T04:08:31.367Z,13.02
2023-03-02T04:10:57.502Z,11.38
2023-03-02T04:13:23.675Z,11.43
2023-03-02T04:15:49.934Z,12.57
2023-03-02T04:18:16.097Z,12.65
2023-03-02T04:20:42.246Z,12.15
2023-03-02T04:23:08.366Z,12.52
2023-03-02T04:25:34.533Z,12.48
2023-03-02T04:28:00.713Z,10.07
2023-03-02T04:30:26.868Z,13.10
2023-03-02T04:32:53.052Z,11.60
2023-03-02T04:35:19.322Z,12.85
2023-03-02T04:37:45.471Z,12.05
2023-03-02T04:40:11.662Z,12.07
2023-03-02T04:42:37.860Z,11.32
2023-03-02T04:45:04.078Z,13.05
2023-03-02T04:47:30.200Z,12.00
2023-03-02T04:49:56.356Z,12.95
2023-03-02T04:52:22.532Z,12.50
2023-03-02T04:54:48.686Z,12.32
2023-03-02T04:57:14.929Z,11.07
2023-03-02T04:59:41.106Z,13.15
2023-03-02T05:02:07.353Z,13.10
2023-03-02T05:04:33.614Z,11.27
2023-03-02T05:06:59.811Z,12.27
2023-03-02T05:09:25.985Z,11.68
2023-03-02T05:11:52.132Z,10.95
2023-03-02T05:14:18.290Z,10.68
2023-03-02T05:16:44.420Z,11.52
2023-03-02T05:19:10.598Z,11.27
2023-03-02T05:21:36.768Z,10.02
2023-03-02T05:24:02.923Z,10.80
2023-03-02T05:26:29.058Z,12.13
2023-03-02T05:28:55.284Z,10.70
2023-03-02T05:31:21.506Z,11.00
2023-03-02T05:33:47.727Z,11.50
2023-03-02T05:36:13.926Z,11.07
2023-03-02T05:38:40.115Z,12.05
2023-03-02T05:41:06.387Z,11.25
2023-03-02T05:43:32.585Z,12.38
2023-03-02T05:45:58.700Z,8.20
2023-03-02T05:48:24.870Z,12.95
2023-03-02T05:50:51.028Z,13.35
2023-03-02T05:53:17.238Z,11.93
2023-03-02T05:55:43.397Z,12.48
2023-03-02T05:58:09.546Z,10.82
2023-03-02T06:00:38.504Z,11.38
2023-03-02T06:03:07.531Z,11.02
2023-03-02T06:05:33.746Z,11.85
2023-03-02T06:07:59.945Z,11.30
2023-03-02T06:10:26.067Z,11.65
2023-03-02T06:12:52.282Z,11.68
2023-03-02T06:15:18.457Z,11.20
2023-03-02T06:17:44.579Z,11.43
2023-03-02T06:20:10.796Z,12.00
2023-03-02T06:22:37.029Z,11.43
2023-03-02T06:25:03.144Z,11.65
2023-03-02T06:27:29.538Z,11.05
2023-03-02T06:29:55.749Z,11.95
2023-03-02T06:32:33.067Z,11.95
2023-03-02T06:38:24.881Z,10.93
2023-03-02T06:43:25.341Z,11.38
2023-03-02T06:48:36.447Z,11.20
2023-03-02T06:51:02.644Z,11.32
2023-03-02T06:53:28.795Z,10.45
2023-03-02T06:55:54.914Z,10.60
2023-03-02T06:58:21.093Z,11.43
2023-03-02T07:00:47.305Z,12.40
2023-03-02T07:03:13.526Z,11.27
2023-03-02T07:05:39.735Z,10.95
2023-03-02T07:08:07.732Z,11.25
2023-03-02T07:10:33.969Z,10.80
2023-03-02T07:13:00.287Z,11.68
2023-03-02T07:15:26.458Z,12.20
2023-03-02T07:17:52.667Z,11.52
2023-03-02T07:20:18.844Z,10.88
2023-03-02T07:22:45.057Z,11.30
2023-03-02T07:25:11.538Z,11.80
2023-03-02T07:27:37.722Z,12.35
2023-03-02T07:30:03.839Z,12.40
2023-03-02T07:32:30.000Z,11.73
2023-03-02T07:34:56.164Z,11.30
2023-03-02T07:37:22.342Z,10.65
2023-03-02T07:42:28.893Z,12.13
2023-03-02T07:44:55.063Z,11.77
2023-03-02T07:47:21.187Z,10.65
2023-03-02T07:49:47.358Z,12.95
2023-03-02T07:52:13.527Z,10.98
2023-03-02T07:54:39.717Z,11.60
2023-03-02T07:57:05.864Z,11.52
2023-03-02T07:59:32.010Z,11.35
2023-03-02T08:01:58.214Z,11.90
2023-03-02T08:04:24.474Z,12.93
2023-03-02T08:06:50.621Z,11.52
2023-03-02T08:09:17.068Z,10.77
2023-03-02T08:11:43.383Z,10.77
2023-03-02T08:14:09.532Z,12.18
2023-03-02T08:16:35.869Z,11.75
2023-03-02T08:19:02.273Z,10.98
2023-03-02T08:21:28.479Z,10.40
2023-03-02T08:23:54.705Z,11.07
2023-03-02T08:26:20.866Z,11.55
2023-03-02T08:28:47.061Z,11.82
2023-03-02T08:31:13.308Z,10.75
2023-03-02T08:33:42.192Z,11.95
2023-03-02T08:36:08.485Z,11.50
2023-03-02T08:38:34.699Z,12.90
2023-03-02T08:41:00.888Z,11.65
2023-03-02T08:43:27.106Z,11.57
2023-03-02T08:45:53.277Z,11.90
2023-03-02T08:48:19.411Z,11.73
2023-03-02T08:50:45.588Z,12.02
2023-03-02T08:53:11.771Z,11.48
2023-03-02T08:55:37.948Z,11.40
2023-03-02T08:58:04.176Z,10.10
2023-03-02T09:00:32.328Z,10.70
2023-03-02T09:02:59.666Z,11.60
2023-03-02T09:05:25.854Z,11.73
2023-03-02T09:07:51.997Z,11.35
2023-03-02T09:10:18.157Z,12.13
2023-03-02T09:12:44.293Z,11.25
2023-03-02T09:15:13.350Z,11.85
2023-03-02T09:17:42.351Z,11.57
2023-03-02T09:20:08.572Z,10.20
2023-03-02T09:22:34.921Z,11.65
2023-03-02T09:25:01.165Z,11.63
2023-03-02T09:27:27.385Z,12.13
2023-03-02T09:29:53.557Z,11.73
2023-03-02T09:32:19.893Z,11.13
2023-03-02T09:34:46.112Z,11.18
2023-03-02T09:37:12.292Z,12.32
2023-03-02T09:39:40.671Z,11.00
2023-03-02T09:42:06.881Z,12.07
2023-03-02T09:44:33.040Z,11.60
2023-03-02T09:46:59.217Z,11.98
2023-03-02T09:49:25.452Z,12.70
2023-03-02T09:51:51.615Z,11.43
2023-03-02T09:54:20.523Z,11.80
2023-03-02T09:56:46.841Z,11.23
2023-03-02T09:59:12.959Z,12.40
2023-03-02T10:01:39.163Z,12.35
2023-03-02T10:04:05.356Z,11.02
2023-03-02T10:06:31.908Z,12.35
2023-03-02T10:08:58.223Z,11.02
2023-03-02T10:11:24.351Z,11.82
2023-03-02T10:13:50.530Z,11.13
2023-03-02T10:16:16.778Z,11.95
2023-03-02T10:18:43.155Z,11.15
2023-03-02T10:21:09.359Z,11.15
2023-03-02T10:23:35.569Z,11.15
2023-03-02T10:26:01.748Z,11.27
2023-03-02T10:28:27.894Z,11.80
2023-03-02T10:30:55.599Z,12.50
2023-03-02T10:33:21.789Z,11.48
2023-03-02T10:35:48.916Z,11.80
2023-03-02T10:38:15.106Z,11.57
2023-03-02T10:40:41.313Z,11.02
2023-03-02T10:43:08.713Z,11.38
2023-03-02T10:45:34.912Z,10.82
2023-03-02T10:48:01.119Z,11.98
2023-03-02T10:50:30.104Z,12.55
2023-03-02T10:53:01.080Z,11.30
2023-03-02T10:55:28.154Z,11.05
2023-03-02T10:57:54.401Z,11.43
2023-03-02T11:00:20.537Z,10.73
2023-03-02T11:02:46.666Z,11.48
2023-03-02T11:05:12.814Z,11.88
2023-03-02T11:07:39.015Z,10.63
2023-03-02T11:10:05.216Z,10.80
2023-03-02T11:12:31.395Z,11.82
2023-03-02T11:14:57.598Z,11.32
2023-03-02T11:17:23.748Z,11.70
2023-03-02T11:19:49.931Z,11.27
2023-03-02T11:22:17.328Z,11.05
2023-03-02T11:24:43.498Z,10.68
2023-03-02T11:27:09.701Z,10.70
2023-03-02T11:29:35.878Z,11.05
2023-03-02T11:32:03.028Z,11.15
2023-03-02T11:34:29.261Z,10.50
2023-03-02T11:36:55.515Z,10.95
2023-03-02T11:39:21.731Z,9.98
2023-03-02T11:41:50.774Z,11.27
2023-03-02T11:44:16.975Z,11.35
2023-03-02T11:46:43.228Z,9.63
2023-03-02T11:49:09.367Z,10.35
2023-03-02T11:51:36.105Z,10.80
2023-03-02T11:54:02.463Z,11.18
2023-03-02T11:56:28.672Z,10.45
2023-03-02T11:58:54.830Z,10.15
2023-03-02T12:01:20.988Z,10.43
2023-03-02T12:03:47.145Z,10.38
2023-03-02T12:06:13.369Z,9.95
2023-03-02T12:08:39.485Z,10.30
2023-03-02T12:11:05.655Z,9.82
2023-03-02T12:13:31.832Z,11.30
2023-03-02T12:15:59.187Z,10.63
2023-03-02T12:18:25.326Z,10.27
2023-03-02T12:20:51.475Z,10.65
2023-03-02T12:23:17.674Z,11.77
2023-03-02T12:25:43.865Z,10.98
2023-03-02T12:28:10.040Z,9.85
2023-03-02T12:30:36.206Z,9.85
2023-03-02T12:33:02.387Z,10.63
2023-03-02T12:35:28.630Z,10.38
2023-03-02T12:37:54.906Z,10.93
2023-03-02T12:40:21.075Z,11.38
2023-03-02T12:42:48.782Z,10.65
2023-03-02T12:45:15.095Z,9.65
2023-03-02T12:47:41.470Z,10.65
2023-03-02T12:50:07.748Z,11.40
2023-03-02T12:52:34.004Z,9.82
2023-03-02T12:55:00.348Z,11.30
2023-03-02T12:57:26.507Z,10.70
2023-03-02T12:59:52.672Z,10.18
2023-03-02T13:02:18.915Z,10.13
2023-03-02T13:04:47.016Z,11.18
2023-03-02T13:07:19.561Z,10.45
2023-03-02T13:09:56.164Z,11.15
2023-03-02T13:12:27.934Z,10.95
2023-03-02T13:14:54.101Z,9.77
2023-03-02T13:17:20.241Z,11.38
2023-03-02T13:19:46.463Z,10.65
2023-03-02T13:22:12.666Z,11.88
2023-03-02T13:24:38.916Z,10.82
2023-03-02T13:27:05.114Z,10.30
2023-03-02T13:29:31.313Z,10.52
2023-03-02T13:31:57.544Z,9.70
2023-03-02T13:34:23.771Z,9.25
2023-03-02T13:36:50.001Z,10.38
2023-03-02T13:39:16.274Z,9.35
2023-03-02T13:41:42.455Z,10.40
2023-03-02T13:44:08.636Z,9.88
2023-03-02T13:46:39.316Z,10.63
2023-03-02T13:49:10.747Z,10.40
2023-03-02T13:51:37.566Z,10.85
2023-03-02T13:54:03.699Z,10.27
2023-03-02T13:56:29.907Z,10.48
2023-03-02T13:58:56.121Z,9.80
2023-03-02T14:01:22.325Z,10.50
2023-03-02T14:03:48.533Z,9.77
2023-03-02T14:06:14.729Z,10.32
2023-03-02T14:08:40.916Z,11.02
2023-03-02T14:11:07.071Z,10.23
2023-03-02T14:13:33.312Z,9.57
2023-03-02T14:15:59.515Z,10.60
2023-03-02T14:18:25.896Z,10.18
2023-03-02T14:20:52.083Z,10.82
2023-03-02T14:23:18.318Z,10.07
2023-03-02T14:25:44.545Z,9.63
2023-03-02T14:28:10.758Z,9.73
2023-03-02T14:30:39.701Z,10.18
2023-03-02T14:33:05.849Z,10.00
2023-03-02T14:35:33.313Z,9.43
2023-03-02T14:37:59.512Z,10.07
2023-03-02T14:40:25.742Z,11.02
2023-03-02T14:42:52.017Z,9.80
2023-03-02T14:45:18.192Z,9.85
2023-03-02T14:47:44.387Z,9.25
2023-03-02T14:50:10.609Z,8.95
2023-03-02T14:52:36.837Z,9.93
2023-03-02T14:55:03.069Z,9.18
2023-03-02T14:57:29.286Z,10.13
2023-03-02T14:59:55.527Z,10.20
2023-03-02T15:02:31.169Z,9.07
2023-03-02T15:04:57.741Z,10.25
2023-03-02T15:07:23.989Z,8.88
2023-03-02T15:09:50.162Z,9.68
2023-03-02T15:12:16.360Z,9.40
2023-03-02T15:14:42.506Z,9.73
2023-03-02T15:17:08.712Z,9.98
2023-03-02T15:19:34.884Z,10.80
2023-03-02T15:27:46.663Z,9.13
2023-03-02T15:30:20.019Z,9.68
2023-03-02T15:41:00.742Z,10.05
2023-03-02T15:46:16.980Z,9.55
2023-03-02T15:48:43.143Z,9.45
2023-03-02T15:51:09.289Z,9.30
2023-03-02T16:01:58.968Z,9.43
2023-03-02T16:04:25.164Z,8.95
2023-03-02T16:06:51.369Z,8.45
2023-03-02T16:09:17.551Z,8.45
2023-03-02T16:11:43.737Z,10.05
2023-03-02T16:14:09.906Z,9.38
2023-03-02T16:16:36.125Z,11.05
2023-03-02T16:19:02.325Z,8.75
2023-03-02T16:21:28.597Z,8.90
2023-03-02T16:23:55.107Z,10.27
2023-03-02T16:43:11.422Z,8.85
2023-03-02T16:45:37.623Z,8.70
2023-03-02T16:48:19.476Z,8.30
2023-03-02T16:50:45.661Z,8.30
2023-03-02T16:53:11.896Z,9.93
2023-03-02T17:06:43.534Z,9.63
2023-03-02T17:09:13.450Z,9.48
2023-03-02T17:14:29.927Z,8.35
2023-03-02T17:16:56.139Z,8.90
2023-03-02T17:24:58.048Z,8.15
2023-03-02T17:30:09.052Z,9.40
2023-03-02T17:32:35.249Z,7.35
2023-03-02T17:35:01.390Z,8.20
2023-03-02T17:37:27.557Z,8.30
2023-03-02T17:39:53.788Z,8.02
2023-03-02T17:42:19.930Z,8.15
2023-03-02T17:47:38.063Z,9.00
2023-03-02T17:58:35.972Z,8.50
2023-03-02T18:01:15.262Z,11.55
2023-03-02T18:03:41.642Z,11.25
2023-03-02T18:06:10.692Z,11.00
2023-03-02T18:08:36.998Z,11.13
2023-03-02T18:13:46.401Z,7.82
2023-03-02T18:19:01.956Z,8.68
2023-03-02T18:21:28.128Z,8.95
2023-03-02T18:23:54.251Z,9.32
2023-03-02T18:32:03.354Z,8.88
2023-03-02T18:34:31.434Z,8.43
2023-03-02T18:36:57.579Z,8.73
2023-03-02T18:39:23.735Z,9.02
2023-03-02T18:41:49.914Z,8.77
2023-03-02T18:44:16.100Z,9.73
2023-03-02T18:46:43.108Z,8.85
2023-03-02T18:49:09.340Z,8.68
2023-03-02T18:51:35.515Z,8.25
2023-03-02T18:54:01.684Z,9.15
2023-03-02T18:56:27.864Z,10.32
2023-03-02T18:58:54.067Z,10.30
2023-03-02T19:01:20.296Z,9.95
2023-03-02T19:03:46.621Z,11.40
2023-03-02T19:06:12.851Z,10.73
2023-03-02T19:08:59.673Z,10.93
2023-03-02T19:14:15.746Z,11.90
2023-03-02T19:16:41.944Z,11.93
2023-03-02T19:19:08.196Z,11.25
2023-03-02T19:21:34.344Z,13.60
2023-03-02T19:24:00.490Z,13.82
2023-03-02T19:26:29.472Z,13.13
2023-03-02T19:28:55.701Z,13.38
2023-03-02T19:31:22.021Z,15.70
2023-03-02T19:33:48.268Z,12.88
2023-03-02T19:36:14.475Z,14.55
2023-03-02T19:41:31.240Z,12.93
2023-03-02T19:43:57.391Z,13.07
2023-03-02T19:46:23.566Z,14.00
2023-03-02T19:48:49.707Z,21.10
2023-03-02T19:51:15.914Z,18.33
2023-03-02T19:53:42.119Z,15.32
2023-03-02T19:56:08.283Z,17.23
2023-03-02T19:58:34.476Z,13.45
2023-03-02T20:01:00.632Z,15.20
2023-03-02T20:03:26.810Z,15.68
2023-03-02T20:05:52.973Z,15.32
2023-03-02T20:08:19.177Z,15.98
2023-03-02T20:10:45.318Z,13.35
2023-03-02T20:13:11.504Z,15.07
2023-03-02T20:15:53.139Z,16.10
2023-03-02T20:20:45.455Z,13.35
2023-03-02T20:23:11.653Z,14.88
2023-03-02T20:25:37.820Z,13.75
2023-03-02T20:28:03.934Z,15.07
2023-03-02T20:30:30.244Z,16.85
2023-03-02T20:32:56.509Z,16.02
2023-03-02T20:35:22.808Z,16.80
2023-03-02T20:37:48.979Z,20.30
2023-03-02T20:40:16.538Z,17.38
2023-03-02T20:42:42.715Z,17.58
2023-03-02T20:45:08.885Z,16.58
2023-03-02T20:47:35.089Z,17.40
2023-03-02T20:50:01.269Z,20.65
2023-03-02T20:52:27.389Z,20.75
2023-03-02T20:54:53.573Z,19.95
2023-03-02T20:57:19.823Z,18.60
2023-03-02T20:59:46.228Z,21.55
2023-03-02T21:07:47.151Z,19.67
2023-03-02T21:10:17.199Z,19.58
2023-03-02T21:15:27.528Z,15.80
2023-03-02T21:17:53.730Z,15.82
2023-03-02T21:20:19.927Z,17.63
2023-03-02T21:22:46.056Z,17.05
2023-03-02T21:25:12.239Z,16.73
2023-03-02T21:27:38.402Z,16.58
2023-03-02T21:30:04.587Z,16.17
2023-03-02T21:32:30.791Z,16.42
2023-03-02T21:35:01.630Z,16.52
2023-03-02T21:37:27.867Z,17.80
2023-03-02T21:39:54.021Z,17.27
2023-03-02T21:42:20.180Z,16.48
2023-03-02T21:44:46.310Z,16.70
2023-03-02T21:47:12.496Z,17.02
2023-03-02T21:49:38.676Z,16.77
2023-03-02T21:52:04.832Z,16.05
2023-03-02T21:54:30.973Z,16.70
2023-03-02T21:56:57.136Z,16.27
2023-03-02T21:59:23.306Z,16.35
2023-03-02T22:01:49.478Z,16.92
2023-03-02T22:04:15.716Z,17.25
2023-03-02T22:06:41.893Z,19.02
2023-03-02T22:09:08.033Z,16.60
2023-03-02T22:11:34.283Z,16.23
2023-03-02T22:14:00.514Z,17.05
2023-03-02T22:16:27.912Z,14.27
2023-03-02T22:18:54.115Z,14.85
2023-03-02T22:21:20.299Z,15.75
2023-03-02T22:23:46.492Z,15.23
2023-03-02T22:26:12.624Z,15.30
2023-03-02T22:28:40.760Z,15.48
2023-03-02T22:31:07.031Z,16.10
2023-03-02T22:33:36.055Z,16.20
2023-03-02T22:36:03.512Z,17.83
2023-03-02T22:38:29.807Z,19.17
2023-03-02T22:40:55.972Z,17.58
2023-03-02T22:43:22.175Z,18.70
2023-03-02T22:45:48.400Z,18.65
2023-03-02T22:48:14.758Z,16.23
2023-03-02T22:50:41.006Z,17.25
2023-03-02T22:53:07.443Z,18.00
2023-03-02T22:55:33.700Z,16.75
2023-03-02T22:58:00.030Z,17.42
2023-03-02T23:00:27.454Z,16.17
2023-03-02T23:02:53.705Z,18.42
2023-03-02T23:05:19.957Z,17.80
2023-03-02T23:07:46.148Z,17.15
2023-03-02T23:10:12.315Z,17.55
2023-03-02T23:12:38.550Z,17.10
2023-03-02T23:15:04.905Z,16.33
2023-03-02T23:17:31.103Z,17.33
2023-03-02T23:19:57.278Z,17.17
2023-03-02T23:22:23.454Z,16.15
2023-03-02T23:24:51.451Z,16.10
2023-03-02T23:27:17.683Z,16.50
2023-03-02T23:29:43.930Z,15.93
2023-03-02T23:32:14.396Z,16.15
2023-03-02T23:34:40.663Z,16.15
2023-03-02T23:37:06.925Z,15.82
2023-03-02T23:39:33.152Z,16.00
2023-03-02T23:42:00.663Z,16.42
2023-03-02T23:44:26.970Z,17.73
2023-03-02T23:46:53.201Z,15.98
2023-03-02T23:49:20.788Z,15.52
2023-03-02T23:51:46.966Z,18.10
2023-03-02T23:54:14.357Z,15.27
2023-03-02T23:56:40.571Z,15.65
2023-03-02T23:59:06.757Z,15.05
